Nicolville, Minnesota
Current Conditions -  °F | °C
As of 12:15 PM on Friday 21 Nov 2014 (Local Time) from KAUM Reporting Station
Clear Clear  
Wind Chill:   Ceiling: Unl
Heat Index: 21°   Visibility: 10mi
Dew Point: 12°   Wind: 17mph
Humidity: 68%   Direction: 180°S
Pressure: 30.17"   Gusts: 23mph
Location:  43.7173°N, 92.9889°W
Report Text: KAUM 211815Z AUTO 18015G20KT 10SM CLR M06/M11 A3017 RMK AO2
Loading
Personal Weather Stations






























Interactive Weather Map New forecast layout! Learn more

10-Day Weather Forecast

Advertisements
Track Severe Weather on mobile